createdAt,value
2023-02-22T00:02:32.113Z,98283.23
2023-02-22T00:05:34.571Z,98286.14
2023-02-22T00:08:37.428Z,98293.42
2023-02-22T00:11:46.067Z,98296.94
2023-02-22T00:14:51.878Z,98304.84
2023-02-22T00:17:55.000Z,98311.11
2023-02-22T00:20:59.714Z,98320.02
2023-02-22T00:24:16.540Z,98323.03
2023-02-22T00:27:19.187Z,98329.95
2023-02-22T00:30:26.582Z,98337.20
2023-02-22T00:33:29.983Z,98343.59
2023-02-22T00:36:32.460Z,98347.96
2023-02-22T00:39:35.063Z,98357.00
2023-02-22T00:42:38.108Z,98363.10
2023-02-22T00:45:41.072Z,98368.98
2023-02-22T00:48:44.156Z,98366.52
2023-02-22T00:51:46.695Z,98376.63
2023-02-22T00:54:50.812Z,98380.86
2023-02-22T00:57:57.819Z,98388.44
2023-02-22T01:01:02.680Z,98389.13
2023-02-22T01:04:06.318Z,98388.39
2023-02-22T01:07:11.539Z,98395.41
2023-02-22T01:10:14.433Z,98400.17
2023-02-22T01:13:23.555Z,98406.36
2023-02-22T01:16:29.591Z,98417.86
2023-02-22T01:19:32.936Z,98422.52
2023-02-22T01:22:35.082Z,98428.52
2023-02-22T01:25:38.137Z,98428.53
2023-02-22T01:28:42.905Z,98432.51
2023-02-22T01:31:53.480Z,98438.33
2023-02-22T01:34:56.437Z,98442.48
2023-02-22T01:37:59.723Z,98445.48
2023-02-22T01:41:05.213Z,98451.50
2023-02-22T01:44:31.914Z,98453.15
2023-02-22T01:47:34.101Z,98460.09
2023-02-22T01:51:00.062Z,98466.79
2023-02-22T01:54:28.753Z,98476.23
2023-02-22T01:57:34.320Z,98479.33
2023-02-22T02:00:39.522Z,98490.23
2023-02-22T02:03:42.258Z,98501.01
2023-02-22T02:06:46.925Z,98496.70
2023-02-22T02:09:59.616Z,98506.95
2023-02-22T02:13:03.777Z,98510.77
2023-02-22T02:16:06.544Z,98520.33
2023-02-22T02:19:22.980Z,98522.09
2023-02-22T02:22:31.308Z,98527.49
2023-02-22T02:25:45.408Z,98535.95
2023-02-22T02:29:39.061Z,98546.42
2023-02-22T02:33:00.548Z,98551.52
2023-02-22T02:36:16.322Z,98554.81
2023-02-22T02:39:31.009Z,98559.16
2023-02-22T02:42:37.773Z,98564.63
2023-02-22T02:46:11.888Z,98571.95
2023-02-22T02:49:28.742Z,98581.08
2023-02-22T02:52:34.477Z,98587.48
2023-02-22T02:55:39.113Z,98589.58
2023-02-22T02:58:49.238Z,98593.19
2023-02-22T03:02:12.855Z,98602.23
2023-02-22T03:05:47.629Z,98604.36
2023-02-22T03:09:09.980Z,98611.02
2023-02-22T03:12:27.250Z,98617.69
2023-02-22T03:15:56.464Z,98626.31
2023-02-22T03:19:21.284Z,98629.65
2023-02-22T03:22:33.003Z,98637.73
2023-02-22T03:25:51.494Z,98639.83
2023-02-22T03:28:58.240Z,98641.47
2023-02-22T03:32:10.978Z,98646.44
2023-02-22T03:35:24.793Z,98650.09
2023-02-22T03:38:29.984Z,98650.80
2023-02-22T03:41:38.073Z,98657.23
2023-02-22T03:44:43.161Z,98659.63
2023-02-22T03:47:52.440Z,98670.20
2023-02-22T03:50:54.948Z,98676.62
2023-02-22T03:53:57.705Z,98677.77
2023-02-22T03:57:16.080Z,98687.17
2023-02-22T04:00:23.898Z,98684.16
2023-02-22T04:03:25.937Z,98684.70
2023-02-22T04:06:29.048Z,98689.05
2023-02-22T04:09:34.165Z,98690.37
2023-02-22T04:12:38.257Z,98695.83
2023-02-22T04:15:42.298Z,98698.63
2023-02-22T04:18:46.529Z,98701.22
2023-02-22T04:21:53.460Z,98712.79
2023-02-22T04:25:01.391Z,98716.68
2023-02-22T04:28:06.143Z,98720.42
2023-02-22T04:31:23.353Z,98723.19
2023-02-22T04:34:26.677Z,98731.36
2023-02-22T04:37:29.100Z,98736.84
2023-02-22T04:40:32.014Z,98739.73
2023-02-22T04:43:38.179Z,98745.81
2023-02-22T04:46:49.766Z,98756.09
2023-02-22T04:49:52.962Z,98766.95
2023-02-22T04:52:59.198Z,98772.23
2023-02-22T04:56:02.541Z,98778.00
2023-02-22T04:59:05.020Z,98780.96
2023-02-22T05:02:07.718Z,98789.48
2023-02-22T05:05:17.869Z,98799.61
2023-02-22T05:08:21.138Z,98802.78
2023-02-22T05:11:29.054Z,98810.38
2023-02-22T05:14:31.021Z,98815.77
2023-02-22T05:17:38.169Z,98824.77
2023-02-22T05:20:40.159Z,98822.66
2023-02-22T05:23:46.014Z,98826.64
2023-02-22T05:26:52.036Z,98831.70
2023-02-22T05:29:54.416Z,98845.27
2023-02-22T05:32:57.227Z,98851.34
2023-02-22T05:35:59.216Z,98856.53
2023-02-22T05:39:02.720Z,98860.60
2023-02-22T05:42:05.420Z,98866.33
2023-02-22T05:45:09.405Z,98867.49
2023-02-22T05:48:15.166Z,98872.64
2023-02-22T05:51:21.135Z,98884.74
2023-02-22T05:54:24.347Z,98884.63
2023-02-22T05:57:26.447Z,98888.69
2023-02-22T06:00:30.603Z,98894.30
2023-02-22T06:03:35.427Z,98900.73
2023-02-22T06:06:39.102Z,98903.33
2023-02-22T06:09:43.318Z,98905.54
2023-02-22T06:12:47.074Z,98914.04
2023-02-22T06:15:49.823Z,98918.52
2023-02-22T06:18:56.010Z,98925.38
2023-02-22T06:22:00.760Z,98932.96
2023-02-22T06:25:05.896Z,98932.64
2023-02-22T06:28:09.046Z,98938.15
2023-02-22T06:31:11.119Z,98942.35
2023-02-22T06:34:16.046Z,98945.95
2023-02-22T06:37:23.893Z,98951.83
2023-02-22T06:40:30.176Z,98958.39
2023-02-22T06:43:36.386Z,98961.27
2023-02-22T06:46:40.933Z,98965.09
2023-02-22T06:49:46.250Z,98969.97
2023-02-22T06:52:49.552Z,98971.77
2023-02-22T06:55:55.130Z,98979.52
2023-02-22T06:58:57.782Z,98979.01
2023-02-22T07:01:59.886Z,98983.90
2023-02-22T07:05:05.396Z,98987.94
2023-02-22T07:08:10.464Z,98994.80
2023-02-22T07:11:14.211Z,99001.81
2023-02-22T07:14:19.120Z,99002.79
2023-02-22T07:17:24.502Z,99004.73
2023-02-22T07:20:29.962Z,99008.37
2023-02-22T07:23:35.877Z,99002.67
2023-02-22T07:26:42.576Z,99007.27
2023-02-22T07:29:53.475Z,99006.01
2023-02-22T07:33:07.433Z,99014.08
2023-02-22T07:36:09.639Z,99019.91
2023-02-22T07:39:16.479Z,99022.52
2023-02-22T07:42:20.763Z,99027.76
2023-02-22T07:45:29.125Z,99033.11
2023-02-22T07:48:33.939Z,99037.32
2023-02-22T07:51:36.375Z,99035.02
2023-02-22T07:54:39.558Z,99035.80
2023-02-22T07:57:46.225Z,99035.88
